createdAt,value
2017-08-13T00:00:00.528Z,14.06
2017-08-13T00:01:00.369Z,14.03
2017-08-13T00:01:55.421Z,14.02
2017-08-13T00:02:50.424Z,13.97
2017-08-13T00:03:50.728Z,14.06
2017-08-13T00:04:45.492Z,14.08
2017-08-13T00:05:40.593Z,14.10
2017-08-13T00:06:41.791Z,14.06
2017-08-13T00:07:41.627Z,14.02
2017-08-13T00:08:41.694Z,13.99
2017-08-13T00:09:37.077Z,13.96
2017-08-13T00:10:30.728Z,14.03
2017-08-13T00:11:30.828Z,14.02
2017-08-13T00:12:25.912Z,14.04
2017-08-13T00:13:25.846Z,14.04
2017-08-13T00:14:20.117Z,14.06
2017-08-13T00:15:19.938Z,14.06
2017-08-13T00:16:15.016Z,14.05
2017-08-13T00:17:09.948Z,14.07
2017-08-13T00:18:10.011Z,14.05
2017-08-13T00:19:05.229Z,14.04
2017-08-13T00:20:00.065Z,14.06
2017-08-13T00:21:06.231Z,14.09
2017-08-13T00:22:00.118Z,14.08
2017-08-13T00:23:00.346Z,14.12
2017-08-13T00:23:55.385Z,14.10
2017-08-13T00:24:55.236Z,14.11
2017-08-13T00:25:55.309Z,14.04
2017-08-13T00:27:01.317Z,14.01
2017-08-13T00:27:56.350Z,14.01
2017-08-13T00:28:56.648Z,13.98
2017-08-13T00:29:51.413Z,13.99
2017-08-13T00:30:46.390Z,13.94
2017-08-13T00:31:47.565Z,13.96
2017-08-13T00:32:47.494Z,13.96
2017-08-13T00:33:47.539Z,13.98
2017-08-13T00:34:42.569Z,13.94
2017-08-13T00:35:36.633Z,13.94
2017-08-13T00:36:37.660Z,13.93
2017-08-13T00:37:37.630Z,13.92
2017-08-13T00:38:37.749Z,13.90
2017-08-13T00:39:32.711Z,13.87
2017-08-13T00:40:27.000Z,13.88
2017-08-13T00:41:26.869Z,13.88
2017-08-13T00:42:22.163Z,13.84
2017-08-13T00:43:17.107Z,13.86
2017-08-13T00:44:18.181Z,13.86
2017-08-13T00:45:17.945Z,13.88
2017-08-13T00:46:18.036Z,13.84
2017-08-13T00:47:13.064Z,13.90
2017-08-13T00:48:07.084Z,13.88
2017-08-13T00:49:07.110Z,13.86
2017-08-13T00:50:02.188Z,13.88
2017-08-13T00:51:08.124Z,13.88
2017-08-13T00:52:03.195Z,13.90
2017-08-13T00:52:57.236Z,13.93
2017-08-13T00:53:58.439Z,13.92
2017-08-13T00:54:53.366Z,13.92
2017-08-13T00:55:47.272Z,13.92
2017-08-13T00:56:47.355Z,13.88
2017-08-13T00:57:42.424Z,13.84
2017-08-13T00:58:42.460Z,13.86
2017-08-13T00:59:36.446Z,13.85
2017-08-13T01:00:36.491Z,13.85
2017-08-13T01:01:31.565Z,13.83
2017-08-13T01:02:26.548Z,13.79
2017-08-13T01:03:26.628Z,13.78
2017-08-13T01:04:21.810Z,13.79
2017-08-13T01:05:16.649Z,13.78
2017-08-13T01:06:16.743Z,13.80
2017-08-13T01:07:11.950Z,13.79
2017-08-13T01:08:06.842Z,13.78
2017-08-13T01:09:08.066Z,13.78
2017-08-13T01:10:08.939Z,13.77
2017-08-13T01:11:04.042Z,13.79
2017-08-13T01:11:58.002Z,13.76
2017-08-13T01:12:58.198Z,13.78
2017-08-13T01:13:58.114Z,13.77
2017-08-13T01:14:53.406Z,13.78
2017-08-13T01:15:47.089Z,13.78
2017-08-13T01:16:47.089Z,13.77
2017-08-13T01:17:42.071Z,13.78
2017-08-13T01:18:37.160Z,13.80
2017-08-13T01:19:38.490Z,13.76
2017-08-13T01:20:38.707Z,13.76
2017-08-13T01:21:38.385Z,13.74
2017-08-13T01:22:33.452Z,13.70
2017-08-13T01:23:27.381Z,13.70
2017-08-13T01:24:27.589Z,13.68
2017-08-13T01:25:22.655Z,13.67
2017-08-13T01:26:22.739Z,13.64
2017-08-13T01:27:16.434Z,13.65
2017-08-13T01:28:16.481Z,13.66
2017-08-13T01:29:11.523Z,13.67
2017-08-13T01:30:06.565Z,13.70
2017-08-13T01:31:06.908Z,13.74
2017-08-13T01:32:01.676Z,13.76
2017-08-13T01:32:56.696Z,13.80
2017-08-13T01:34:02.911Z,13.81
2017-08-13T01:34:56.704Z,13.86
2017-08-13T01:35:56.736Z,13.90
2017-08-13T01:36:51.904Z,13.90
2017-08-13T01:37:57.940Z,13.90
2017-08-13T01:38:57.811Z,13.92
2017-08-13T01:39:58.855Z,13.97
2017-08-13T01:40:52.996Z,14.00
2017-08-13T01:41:52.957Z,14.00
2017-08-13T01:42:48.015Z,14.02
2017-08-13T01:43:43.030Z,14.05
2017-08-13T01:44:44.082Z,14.06
2017-08-13T01:45:44.087Z,14.09
2017-08-13T01:46:44.098Z,14.12
2017-08-13T01:47:39.179Z,14.14
2017-08-13T01:48:33.177Z,14.18
2017-08-13T01:49:33.246Z,14.18
2017-08-13T01:50:28.545Z,14.18
2017-08-13T01:51:28.281Z,14.18
2017-08-13T01:52:22.397Z,14.18
2017-08-13T01:53:22.383Z,14.18
2017-08-13T01:54:17.423Z,14.16
2017-08-13T01:55:12.478Z,14.20
2017-08-13T01:56:12.407Z,14.22
2017-08-13T01:57:07.538Z,14.24
2017-08-13T01:58:02.560Z,14.22
2017-08-13T01:59:03.623Z,14.22
2017-08-13T02:00:03.637Z,14.26
2017-08-13T02:01:03.645Z,14.28
2017-08-13T02:01:58.724Z,14.26
2017-08-13T02:02:52.708Z,14.28
2017-08-13T02:03:52.771Z,14.31
2017-08-13T02:04:47.800Z,14.30
2017-08-13T02:05:47.822Z,14.34
2017-08-13T02:06:41.954Z,14.39
2017-08-13T02:07:36.022Z,14.38
2017-08-13T02:08:24.927Z,14.38
2017-08-13T02:09:13.979Z,14.37
2017-08-13T02:10:03.019Z,14.38
2017-08-13T02:10:51.062Z,14.37
2017-08-13T02:11:39.053Z,14.35
2017-08-13T02:12:27.167Z,14.32
2017-08-13T02:13:16.183Z,14.33
2017-08-13T02:14:04.249Z,14.32
2017-08-13T02:14:52.252Z,14.31
2017-08-13T02:15:41.615Z,14.34
2017-08-13T02:16:35.315Z,14.34
2017-08-13T02:17:23.434Z,14.34
2017-08-13T02:18:11.496Z,14.36
2017-08-13T02:19:00.759Z,14.32
2017-08-13T02:19:48.586Z,14.33
2017-08-13T02:20:36.571Z,14.35
2017-08-13T02:21:24.564Z,14.34
2017-08-13T02:22:12.638Z,14.35
2017-08-13T02:23:01.741Z,14.34
2017-08-13T02:23:49.829Z,14.33
2017-08-13T02:24:39.072Z,14.32
2017-08-13T02:25:27.828Z,14.32
2017-08-13T02:26:16.850Z,14.30
2017-08-13T02:27:04.891Z,14.28
2017-08-13T02:27:53.954Z,14.29
2017-08-13T02:28:42.004Z,14.28
2017-08-13T02:29:30.019Z,14.28
2017-08-13T02:30:19.364Z,14.26
2017-08-13T02:31:07.199Z,14.27
2017-08-13T02:31:55.466Z,14.28
2017-08-13T02:32:44.227Z,14.28
2017-08-13T02:33:33.261Z,14.24
2017-08-13T02:34:22.673Z,14.20
2017-08-13T02:35:10.466Z,14.20
2017-08-13T02:36:05.510Z,14.18
2017-08-13T02:36:54.675Z,14.15
2017-08-13T02:37:42.495Z,14.14
2017-08-13T02:38:31.529Z,14.12
2017-08-13T02:39:19.728Z,14.08
2017-08-13T02:40:07.576Z,14.12
2017-08-13T02:40:56.614Z,14.08
2017-08-13T02:41:44.672Z,14.08
2017-08-13T02:42:32.742Z,14.06
2017-08-13T02:43:20.817Z,14.04
2017-08-13T02:44:09.787Z,14.03
2017-08-13T02:44:57.930Z,14.06
2017-08-13T02:45:52.118Z,14.04
2017-08-13T02:46:40.975Z,14.01
2017-08-13T02:47:29.003Z,14.03
2017-08-13T02:48:17.059Z,14.02
2017-08-13T02:49:05.246Z,13.99
2017-08-13T02:49:54.163Z,14.02
2017-08-13T02:50:42.170Z,13.99
2017-08-13T02:51:30.212Z,13.96
2017-08-13T02:52:18.317Z,13.96
2017-08-13T02:53:06.329Z,13.92
2017-08-13T02:54:01.612Z,13.88
2017-08-13T02:54:49.501Z,13.86
2017-08-13T02:55:37.421Z,13.82
2017-08-13T02:56:25.761Z,13.78
2017-08-13T02:57:25.633Z,13.78
2017-08-13T02:58:13.525Z,13.78
2017-08-13T02:59:01.852Z,13.71
2017-08-13T02:59:49.705Z,13.72
2017-08-13T03:00:37.734Z,13.69
2017-08-13T03:01:26.715Z,13.67
2017-08-13T03:02:14.718Z,13.64
2017-08-13T03:03:08.784Z,13.61
2017-08-13T03:03:56.749Z,13.56
2017-08-13T03:04:45.874Z,13.59
2017-08-13T03:05:34.890Z,13.54
2017-08-13T03:06:22.875Z,13.54
2017-08-13T03:07:22.938Z,13.54
2017-08-13T03:08:23.010Z,13.45
2017-08-13T03:09:29.100Z,13.39
2017-08-13T03:10:29.106Z,13.42
2017-08-13T03:11:23.158Z,13.48
2017-08-13T03:12:24.092Z,13.49
2017-08-13T03:13:24.245Z,13.54
2017-08-13T03:14:19.440Z,13.51
2017-08-13T03:15:19.202Z,13.50
2017-08-13T03:16:13.312Z,13.46
2017-08-13T03:17:13.381Z,13.40
2017-08-13T03:18:08.338Z,13.34
2017-08-13T03:19:03.365Z,13.30
2017-08-13T03:20:03.461Z,13.32
2017-08-13T03:20:58.497Z,13.32
2017-08-13T03:21:53.510Z,13.34
2017-08-13T03:22:54.526Z,13.33
2017-08-13T03:23:54.633Z,13.28
2017-08-13T03:24:54.516Z,13.24
2017-08-13T03:25:49.662Z,13.20
2017-08-13T03:26:49.710Z,13.18
2017-08-13T03:27:49.680Z,13.15
2017-08-13T03:28:43.701Z,13.10
2017-08-13T03:29:44.026Z,13.03
2017-08-13T03:30:38.898Z,13.05
2017-08-13T03:31:38.882Z,13.02
2017-08-13T03:32:32.866Z,12.98
2017-08-13T03:33:32.831Z,12.97
2017-08-13T03:34:27.928Z,12.90
2017-08-13T03:35:27.967Z,12.90
2017-08-13T03:36:28.031Z,12.89
2017-08-13T03:37:34.051Z,12.90
2017-08-13T03:38:29.101Z,12.86
2017-08-13T03:39:23.173Z,12.82
2017-08-13T03:40:23.133Z,12.82
2017-08-13T03:41:18.143Z,12.82
2017-08-13T03:42:18.525Z,12.85
2017-08-13T03:43:12.251Z,12.83
2017-08-13T03:44:12.220Z,12.79
2017-08-13T03:45:07.222Z,12.76
2017-08-13T03:46:02.373Z,12.76
2017-08-13T03:47:03.375Z,12.72
2017-08-13T03:48:03.461Z,12.72
2017-08-13T03:49:03.484Z,12.72
2017-08-13T03:49:58.410Z,12.72
2017-08-13T03:50:52.556Z,12.77
2017-08-13T03:51:52.580Z,12.78
2017-08-13T03:52:47.563Z,12.78
2017-08-13T03:53:42.880Z,12.80
2017-08-13T03:54:42.566Z,12.79
2017-08-13T03:55:37.649Z,12.80
2017-08-13T03:56:32.629Z,12.80
2017-08-13T03:57:32.819Z,12.82
2017-08-13T03:58:27.745Z,12.84
2017-08-13T03:59:22.778Z,12.82
2017-08-13T04:00:16.797Z,12.76
2017-08-13T04:01:17.879Z,12.74
2017-08-13T04:02:18.207Z,12.76
2017-08-13T04:03:12.936Z,12.74
2017-08-13T04:04:12.952Z,12.70
2017-08-13T04:05:12.997Z,12.70
2017-08-13T04:06:12.993Z,12.67
2017-08-13T04:07:07.172Z,12.65
2017-08-13T04:08:08.097Z,12.66
2017-08-13T04:09:09.153Z,12.66
2017-08-13T04:10:09.198Z,12.64
2017-08-13T04:11:04.241Z,12.66
2017-08-13T04:12:04.294Z,12.56
2017-08-13T04:13:05.266Z,12.55
2017-08-13T04:13:59.657Z,12.58
2017-08-13T04:15:00.346Z,12.64
2017-08-13T04:16:00.355Z,12.68
2017-08-13T04:16:55.467Z,12.71
2017-08-13T04:17:50.393Z,12.73
2017-08-13T04:18:50.435Z,12.74
2017-08-13T04:19:45.476Z,12.84
2017-08-13T04:20:40.542Z,12.82
2017-08-13T04:21:34.491Z,12.82
2017-08-13T04:22:34.652Z,12.86
2017-08-13T04:23:29.664Z,12.81
2017-08-13T04:24:29.687Z,12.86
2017-08-13T04:25:30.997Z,12.86
2017-08-13T04:26:24.684Z,12.83
2017-08-13T04:27:24.765Z,12.82
2017-08-13T04:28:19.842Z,12.84
2017-08-13T04:29:14.928Z,12.84
2017-08-13T04:30:08.831Z,12.78
2017-08-13T04:31:09.892Z,12.76
2017-08-13T04:32:10.901Z,12.72
2017-08-13T04:33:05.983Z,12.70
2017-08-13T04:34:06.032Z,12.72
2017-08-13T04:35:12.085Z,12.73
2017-08-13T04:36:07.134Z,12.76
2017-08-13T04:37:07.096Z,12.81
2017-08-13T04:38:07.106Z,12.84
2017-08-13T04:39:01.653Z,12.78
2017-08-13T04:40:02.322Z,12.80
2017-08-13T04:41:02.224Z,12.80
2017-08-13T04:41:57.305Z,12.81
2017-08-13T04:42:52.357Z,12.83
2017-08-13T04:43:53.315Z,12.80
2017-08-13T04:44:53.363Z,12.78
2017-08-13T04:45:48.420Z,12.76
2017-08-13T04:46:43.453Z,12.76
2017-08-13T04:47:43.501Z,12.80
2017-08-13T04:48:38.690Z,12.81
2017-08-13T04:49:33.624Z,12.91
2017-08-13T04:50:27.530Z,12.89
2017-08-13T04:51:28.732Z,12.88
2017-08-13T04:52:23.576Z,12.88
2017-08-13T04:53:23.866Z,12.84
2017-08-13T04:54:23.783Z,12.83
2017-08-13T04:55:23.778Z,12.82
2017-08-13T04:56:23.973Z,12.80
2017-08-13T04:57:23.899Z,12.89
2017-08-13T04:58:23.891Z,12.89
2017-08-13T04:59:23.937Z,12.86
2017-08-13T05:00:23.944Z,12.85
2017-08-13T05:01:23.939Z,12.92
2017-08-13T05:02:30.015Z,12.91
2017-08-13T05:03:24.999Z,12.97
2017-08-13T05:04:19.002Z,12.98
2017-08-13T05:05:19.120Z,12.99
2017-08-13T05:06:14.393Z,13.06
2017-08-13T05:07:09.133Z,13.06
2017-08-13T05:08:09.437Z,13.08
2017-08-13T05:09:04.442Z,13.21
2017-08-13T05:09:59.385Z,13.24
2017-08-13T05:10:53.288Z,13.33
2017-08-13T05:11:54.328Z,13.34
2017-08-13T05:12:49.468Z,13.43
2017-08-13T05:13:49.702Z,13.55
2017-08-13T05:14:55.420Z,13.72
2017-08-13T05:15:55.482Z,13.92
2017-08-13T05:16:56.569Z,14.18
2017-08-13T05:17:57.602Z,14.39
2017-08-13T05:18:58.758Z,14.28
2017-08-13T05:19:52.785Z,14.21
2017-08-13T05:20:53.838Z,14.22
2017-08-13T05:21:53.872Z,14.23
2017-08-13T05:22:48.910Z,14.37
2017-08-13T05:23:43.967Z,14.47
2017-08-13T05:24:44.052Z,14.55
2017-08-13T05:25:39.055Z,14.81
2017-08-13T05:26:34.079Z,15.04
2017-08-13T05:27:27.925Z,15.18
2017-08-13T05:28:29.130Z,15.31
2017-08-13T05:29:30.028Z,15.32
2017-08-13T05:30:30.389Z,15.58
2017-08-13T05:31:30.119Z,15.65
2017-08-13T05:32:30.366Z,15.82
2017-08-13T05:33:30.423Z,15.99
2017-08-13T05:34:30.387Z,15.88
2017-08-13T05:35:30.396Z,15.73
2017-08-13T05:36:30.509Z,15.67
2017-08-13T05:37:30.553Z,15.64
2017-08-13T05:38:30.731Z,15.68
2017-08-13T05:39:30.649Z,15.88
2017-08-13T05:40:30.657Z,16.12
2017-08-13T05:41:30.733Z,16.13
2017-08-13T05:42:31.805Z,16.13
2017-08-13T05:43:26.736Z,16.36
2017-08-13T05:44:20.752Z,16.53
2017-08-13T05:45:20.880Z,16.35
2017-08-13T05:46:15.963Z,16.36
2017-08-13T05:47:10.886Z,16.36
2017-08-13T05:47:59.974Z,16.39
2017-08-13T05:48:54.967Z,16.39
2017-08-13T05:49:49.079Z,16.50
2017-08-13T05:50:43.184Z,17.00
2017-08-13T05:51:38.153Z,17.64
2017-08-13T05:52:32.165Z,17.60
2017-08-13T05:53:20.278Z,17.46
2017-08-13T05:54:14.325Z,17.83
2017-08-13T05:55:08.339Z,18.28
2017-08-13T05:56:02.350Z,18.30
2017-08-13T05:56:57.429Z,18.36
2017-08-13T05:57:45.498Z,18.61
2017-08-13T05:58:34.493Z,18.83
2017-08-13T05:59:22.571Z,18.86
2017-08-13T06:00:10.621Z,18.81
2017-08-13T06:00:58.687Z,18.87
2017-08-13T06:01:46.803Z,18.90
2017-08-13T06:02:35.802Z,19.06
2017-08-13T06:03:29.860Z,19.05
2017-08-13T06:04:29.850Z,19.27
2017-08-13T06:05:24.902Z,19.14
2017-08-13T06:06:19.938Z,19.32
2017-08-13T06:07:19.992Z,19.38
2017-08-13T06:08:15.089Z,19.46
2017-08-13T06:09:10.129Z,19.24
2017-08-13T06:09:58.158Z,19.16
2017-08-13T06:10:58.191Z,19.36
2017-08-13T06:11:46.258Z,19.71
2017-08-13T06:12:34.371Z,19.88
2017-08-13T06:13:22.424Z,20.14
2017-08-13T06:14:11.476Z,20.29
2017-08-13T06:14:59.489Z,20.39
2017-08-13T06:15:47.526Z,20.61
2017-08-13T06:16:36.587Z,20.86
2017-08-13T06:17:30.615Z,21.00
2017-08-13T06:18:30.630Z,20.94
2017-08-13T06:19:30.782Z,21.16
2017-08-13T06:20:30.815Z,21.49
2017-08-13T06:21:30.792Z,21.63
2017-08-13T06:22:30.911Z,21.78
2017-08-13T06:23:30.892Z,21.91
2017-08-13T06:24:31.980Z,22.17
2017-08-13T06:25:27.123Z,22.14
2017-08-13T06:26:21.060Z,22.26
2017-08-13T06:27:22.112Z,22.36
2017-08-13T06:28:17.239Z,22.43
2017-08-13T06:29:17.255Z,22.49
2017-08-13T06:30:17.209Z,22.32
2017-08-13T06:31:17.281Z,22.58
2017-08-13T06:32:17.412Z,22.33
2017-08-13T06:33:17.415Z,21.91
2017-08-13T06:34:17.474Z,22.20
2017-08-13T06:35:17.575Z,22.34
2017-08-13T06:36:17.621Z,22.67
2017-08-13T06:37:17.719Z,22.85
2017-08-13T06:38:17.704Z,22.47
2017-08-13T06:39:17.739Z,22.19
2017-08-13T06:40:17.826Z,22.16
2017-08-13T06:41:17.804Z,22.36
2017-08-13T06:42:17.851Z,22.41
2017-08-13T06:43:17.919Z,22.33
2017-08-13T06:44:23.976Z,21.78
2017-08-13T06:45:24.026Z,21.17
2017-08-13T06:46:25.115Z,21.10
2017-08-13T06:47:26.116Z,21.06
2017-08-13T06:48:27.222Z,20.60
2017-08-13T06:49:21.190Z,20.58
2017-08-13T06:50:21.264Z,19.68
2017-08-13T06:51:16.252Z,19.66
2017-08-13T06:52:11.429Z,19.92
2017-08-13T06:53:05.441Z,20.00
2017-08-13T06:54:05.681Z,20.16
2017-08-13T06:55:00.566Z,20.35
2017-08-13T06:55:55.614Z,20.45
2017-08-13T06:56:55.690Z,20.68
2017-08-13T06:57:50.712Z,20.62
2017-08-13T06:58:45.804Z,20.52
2017-08-13T06:59:39.860Z,21.01
2017-08-13T07:00:40.899Z,21.11
2017-08-13T07:01:35.910Z,21.24
2017-08-13T07:02:36.023Z,21.64
2017-08-13T07:03:36.033Z,23.48
2017-08-13T07:04:36.138Z,23.45
2017-08-13T07:05:36.199Z,23.52
2017-08-13T07:06:36.216Z,23.61
2017-08-13T07:07:36.272Z,23.28
2017-08-13T07:08:36.301Z,23.83
2017-08-13T07:09:36.328Z,23.86
2017-08-13T07:10:36.369Z,24.25
2017-08-13T07:11:36.471Z,24.91
2017-08-13T07:12:36.519Z,24.42
2017-08-13T07:13:36.590Z,24.66
2017-08-13T07:14:36.643Z,25.08
2017-08-13T07:15:36.700Z,25.17
2017-08-13T07:16:36.730Z,25.65
2017-08-13T07:17:36.788Z,25.98
2017-08-13T07:18:36.810Z,25.88
2017-08-13T07:19:36.906Z,25.88
2017-08-13T07:20:37.041Z,25.94
2017-08-13T07:21:37.035Z,26.07
2017-08-13T07:22:37.065Z,25.85
2017-08-13T07:23:32.141Z,25.84
2017-08-13T07:24:20.208Z,25.90
2017-08-13T07:25:09.250Z,25.86
2017-08-13T07:26:09.329Z,25.75
2017-08-13T07:27:10.341Z,25.49
2017-08-13T07:28:04.422Z,25.26
2017-08-13T07:28:53.469Z,25.09
2017-08-13T07:29:42.531Z,25.06
2017-08-13T07:30:30.519Z,25.08
2017-08-13T07:31:24.683Z,25.34
2017-08-13T07:32:13.723Z,25.44
2017-08-13T07:33:02.833Z,25.42
2017-08-13T07:33:50.816Z,25.80
2017-08-13T07:34:45.932Z,25.86
2017-08-13T07:35:34.990Z,25.60
2017-08-13T07:36:29.985Z,25.38
2017-08-13T07:37:24.048Z,25.47
2017-08-13T07:38:19.111Z,25.04
2017-08-13T07:39:07.405Z,24.69
2017-08-13T07:39:56.249Z,24.71
2017-08-13T07:40:50.336Z,24.83
2017-08-13T07:41:38.361Z,25.52
2017-08-13T07:42:27.460Z,25.96
2017-08-13T07:43:21.450Z,26.20
2017-08-13T07:44:21.507Z,26.01
2017-08-13T07:45:09.642Z,25.92
2017-08-13T07:46:03.737Z,26.10
2017-08-13T07:46:51.715Z,25.80
2017-08-13T07:47:45.810Z,25.04
2017-08-13T07:48:39.866Z,24.45
2017-08-13T07:49:28.917Z,24.64
2017-08-13T07:50:23.001Z,24.96
2017-08-13T07:51:23.054Z,25.55
2017-08-13T07:52:17.119Z,25.94
2017-08-13T07:53:12.150Z,25.74
2017-08-13T07:54:06.251Z,25.54
2017-08-13T07:54:54.338Z,25.94
2017-08-13T07:55:55.279Z,26.26
2017-08-13T07:56:56.408Z,26.75
2017-08-13T07:57:50.794Z,26.32
2017-08-13T07:58:44.509Z,26.18
2017-08-13T07:59:44.561Z,26.43
2017-08-13T08:00:44.620Z,26.02
2017-08-13T08:01:39.755Z,25.63
2017-08-13T08:02:33.721Z,25.82
2017-08-13T08:03:27.890Z,26.26
2017-08-13T08:04:27.869Z,26.16
2017-08-13T08:05:21.929Z,26.10
2017-08-13T08:06:21.970Z,26.49
2017-08-13T08:07:10.037Z,26.52
2017-08-13T08:07:58.179Z,25.89
2017-08-13T08:08:47.199Z,26.31
2017-08-13T08:09:36.223Z,26.33
2017-08-13T08:10:30.313Z,26.33
2017-08-13T08:11:24.303Z,26.31
2017-08-13T08:12:18.420Z,26.04
2017-08-13T08:13:18.469Z,25.32
2017-08-13T08:14:13.695Z,25.06
2017-08-13T08:15:07.613Z,25.18
2017-08-13T08:16:07.687Z,25.12
2017-08-13T08:17:01.685Z,25.33
2017-08-13T08:17:56.850Z,25.72
2017-08-13T08:18:56.783Z,25.25
2017-08-13T08:19:50.978Z,25.27
2017-08-13T08:20:39.906Z,25.33
2017-08-13T08:21:40.022Z,25.40
2017-08-13T08:22:29.144Z,25.11
2017-08-13T08:23:23.193Z,25.07
2017-08-13T08:24:11.232Z,25.02
2017-08-13T08:25:05.293Z,24.29
2017-08-13T08:25:53.313Z,23.62
2017-08-13T08:26:47.391Z,22.76
2017-08-13T08:27:36.491Z,22.66
2017-08-13T08:28:36.538Z,22.90
2017-08-13T08:29:25.569Z,23.36
2017-08-13T08:30:14.680Z,24.01
2017-08-13T08:31:09.721Z,24.55
2017-08-13T08:32:04.807Z,24.92
2017-08-13T08:33:05.824Z,25.62
2017-08-13T08:33:59.889Z,25.32
2017-08-13T08:34:48.991Z,24.95
2017-08-13T08:35:43.999Z,25.02
2017-08-13T08:36:44.075Z,24.42
2017-08-13T08:37:39.088Z,24.50
2017-08-13T08:38:34.196Z,24.17
2017-08-13T08:39:23.237Z,24.06
2017-08-13T08:40:17.258Z,24.06
2017-08-13T08:41:06.372Z,23.92
2017-08-13T08:41:55.469Z,24.01
2017-08-13T08:42:50.488Z,24.31
2017-08-13T08:43:45.505Z,24.58
2017-08-13T08:44:40.595Z,24.77
2017-08-13T08:45:29.668Z,24.83
2017-08-13T08:46:24.839Z,25.23
2017-08-13T08:47:19.753Z,25.56
2017-08-13T08:48:14.907Z,25.82
2017-08-13T08:49:08.952Z,25.90
2017-08-13T08:50:02.979Z,25.76
2017-08-13T08:50:57.053Z,26.05
2017-08-13T08:51:51.136Z,26.08
2017-08-13T08:52:51.197Z,26.04
2017-08-13T08:53:39.251Z,25.91
2017-08-13T08:54:33.301Z,26.00
2017-08-13T08:55:33.362Z,25.52
2017-08-13T08:56:21.378Z,25.37
2017-08-13T08:57:16.491Z,25.08
2017-08-13T08:58:05.633Z,25.08
2017-08-13T08:59:00.627Z,25.56
2017-08-13T08:59:49.630Z,25.64
2017-08-13T09:00:43.734Z,25.44
2017-08-13T09:01:32.768Z,25.40
2017-08-13T09:02:33.814Z,25.32
2017-08-13T09:03:21.961Z,25.52
2017-08-13T09:04:11.010Z,25.19
2017-08-13T09:05:05.065Z,25.18
2017-08-13T09:05:54.071Z,24.86
2017-08-13T09:06:49.240Z,24.88
2017-08-13T09:07:43.194Z,24.86
2017-08-13T09:08:38.297Z,24.90
2017-08-13T09:09:38.336Z,25.42
2017-08-13T09:10:32.375Z,25.65
2017-08-13T09:11:26.454Z,25.08
2017-08-13T09:12:15.516Z,24.84
2017-08-13T09:13:09.661Z,24.87
2017-08-13T09:14:15.584Z,24.95
2017-08-13T09:15:09.703Z,24.95
2017-08-13T09:16:04.759Z,24.84
2017-08-13T09:16:59.785Z,24.77
2017-08-13T09:17:53.974Z,24.90
2017-08-13T09:18:47.948Z,24.89
2017-08-13T09:19:43.033Z,25.02
2017-08-13T09:20:37.101Z,24.91
2017-08-13T09:21:26.111Z,25.60
2017-08-13T09:22:14.176Z,26.08
2017-08-13T09:23:09.209Z,25.86
2017-08-13T09:24:03.294Z,26.11
2017-08-13T09:25:03.381Z,26.22
2017-08-13T09:25:58.403Z,26.30
2017-08-13T09:26:46.545Z,26.49
2017-08-13T09:27:41.563Z,26.27
2017-08-13T09:28:42.582Z,26.14
2017-08-13T09:29:36.725Z,26.31
2017-08-13T09:30:24.750Z,26.00
2017-08-13T09:31:25.780Z,25.90
2017-08-13T09:32:19.824Z,25.90
2017-08-13T09:33:08.888Z,25.72
2017-08-13T09:33:58.024Z,25.67
2017-08-13T09:34:47.055Z,25.62
2017-08-13T09:35:36.091Z,25.78
2017-08-13T09:36:31.163Z,26.17
2017-08-13T09:37:31.226Z,26.40
2017-08-13T09:38:20.296Z,26.64
2017-08-13T09:39:14.420Z,26.40
2017-08-13T09:40:08.411Z,25.48
2017-08-13T09:41:02.499Z,24.51
2017-08-13T09:41:51.568Z,24.10
2017-08-13T09:42:51.709Z,24.13
2017-08-13T09:43:46.723Z,24.14
2017-08-13T09:44:40.761Z,24.25
2017-08-13T09:45:40.883Z,24.34
2017-08-13T09:46:34.880Z,24.46
2017-08-13T09:47:23.988Z,24.70
2017-08-13T09:48:18.991Z,24.54
2017-08-13T09:49:08.038Z,24.49
2017-08-13T09:50:02.141Z,24.62
2017-08-13T09:50:57.197Z,24.87
2017-08-13T09:51:52.243Z,24.85
2017-08-13T09:52:58.297Z,24.25
2017-08-13T09:53:58.291Z,23.91
2017-08-13T09:54:53.396Z,23.64
2017-08-13T09:55:42.516Z,23.92
2017-08-13T09:56:31.589Z,24.25
2017-08-13T09:57:25.631Z,24.29
2017-08-13T09:58:14.671Z,24.55
2017-08-13T09:59:09.975Z,24.87
2017-08-13T10:00:03.743Z,24.61
2017-08-13T10:00:52.835Z,24.75
2017-08-13T10:01:47.952Z,24.86
2017-08-13T10:02:48.065Z,25.03
2017-08-13T10:03:48.017Z,25.24
2017-08-13T10:04:54.159Z,25.41
2017-08-13T10:05:54.155Z,25.55
2017-08-13T10:06:54.209Z,25.52
2017-08-13T10:07:48.291Z,25.77
2017-08-13T10:08:43.353Z,25.66
2017-08-13T10:09:37.398Z,25.70
2017-08-13T10:10:26.589Z,25.78
2017-08-13T10:11:21.541Z,25.61
2017-08-13T10:12:15.685Z,25.55
2017-08-13T10:13:10.643Z,25.57
2017-08-13T10:14:04.794Z,25.76
2017-08-13T10:14:53.873Z,25.54
2017-08-13T10:15:42.797Z,25.18
2017-08-13T10:16:37.001Z,25.10
2017-08-13T10:17:31.030Z,24.71
2017-08-13T10:18:20.138Z,24.10
2017-08-13T10:19:15.147Z,23.56
2017-08-13T10:20:15.236Z,23.14
2017-08-13T10:21:10.241Z,22.77
2017-08-13T10:22:05.281Z,22.44
2017-08-13T10:22:53.400Z,22.07
2017-08-13T10:23:48.545Z,21.92
2017-08-13T10:24:42.606Z,22.26
2017-08-13T10:25:36.609Z,22.73
2017-08-13T10:26:36.577Z,23.01
2017-08-13T10:27:25.598Z,23.50
2017-08-13T10:28:19.752Z,23.49
2017-08-13T10:29:19.898Z,23.58
2017-08-13T10:30:14.868Z,24.01
2017-08-13T10:31:03.018Z,24.15
2017-08-13T10:31:57.999Z,24.11
2017-08-13T10:32:53.070Z,23.80
2017-08-13T10:33:41.199Z,23.56
2017-08-13T10:34:35.271Z,23.28
2017-08-13T10:35:30.267Z,23.24
2017-08-13T10:36:19.290Z,23.32
2017-08-13T10:37:14.304Z,23.40
2017-08-13T10:38:08.426Z,23.27
2017-08-13T10:39:08.536Z,22.92
2017-08-13T10:40:02.576Z,22.67
2017-08-13T10:40:56.870Z,22.36
2017-08-13T10:41:50.659Z,21.88
2017-08-13T10:42:44.682Z,21.70
2017-08-13T10:43:38.718Z,21.49
2017-08-13T10:44:33.853Z,21.22
2017-08-13T10:45:33.851Z,20.93
2017-08-13T10:46:27.975Z,20.82
2017-08-13T10:47:22.047Z,20.69
2017-08-13T10:48:22.067Z,20.42
2017-08-13T10:49:17.147Z,20.29
2017-08-13T10:50:17.298Z,20.11
2017-08-13T10:51:12.269Z,20.30
2017-08-13T10:52:07.255Z,20.46
2017-08-13T10:53:08.365Z,20.38
2017-08-13T10:54:03.457Z,20.32
2017-08-13T10:54:52.508Z,19.94
2017-08-13T10:55:53.572Z,19.83
2017-08-13T10:56:42.551Z,20.21
2017-08-13T10:57:37.663Z,20.03
2017-08-13T10:58:32.675Z,19.74
2017-08-13T10:59:21.875Z,19.64
2017-08-13T11:00:16.893Z,19.06
2017-08-13T11:01:10.910Z,19.67
2017-08-13T11:02:05.009Z,19.87
2017-08-13T11:02:58.924Z,19.92
2017-08-13T11:03:54.028Z,19.76
2017-08-13T11:04:47.988Z,19.83
2017-08-13T11:05:48.075Z,20.08
2017-08-13T11:06:37.233Z,20.32
2017-08-13T11:07:31.234Z,20.46
2017-08-13T11:08:26.321Z,20.52
2017-08-13T11:09:15.296Z,20.40
2017-08-13T11:10:09.394Z,20.64
2017-08-13T11:11:04.396Z,20.56
2017-08-13T11:11:59.489Z,20.47
2017-08-13T11:12:53.513Z,20.29
2017-08-13T11:13:53.645Z,20.83
2017-08-13T11:14:41.584Z,21.06
2017-08-13T11:15:36.697Z,21.14
2017-08-13T11:16:24.716Z,21.31
2017-08-13T11:17:12.817Z,21.43
2017-08-13T11:18:12.821Z,21.48
2017-08-13T11:19:06.933Z,21.36
2017-08-13T11:20:00.980Z,21.18
2017-08-13T11:20:49.913Z,21.13
2017-08-13T11:21:44.162Z,21.20
2017-08-13T11:22:38.112Z,21.33
2017-08-13T11:23:27.215Z,21.85
2017-08-13T11:24:21.226Z,22.38
2017-08-13T11:25:09.255Z,22.72
2017-08-13T11:26:03.330Z,22.96
2017-08-13T11:26:57.403Z,23.22
2017-08-13T11:27:51.473Z,23.32
2017-08-13T11:28:52.466Z,23.50
2017-08-13T11:29:53.457Z,24.16
2017-08-13T11:30:41.610Z,24.51
2017-08-13T11:31:30.557Z,24.44
2017-08-13T11:32:24.689Z,24.13
2017-08-13T11:33:18.794Z,23.78
2017-08-13T11:34:13.003Z,24.06
2017-08-13T11:35:01.859Z,24.61
2017-08-13T11:35:55.928Z,24.57
2017-08-13T11:36:43.960Z,24.56
2017-08-13T11:37:38.039Z,24.98
2017-08-13T11:38:32.085Z,25.80
2017-08-13T11:39:26.145Z,26.44
2017-08-13T11:40:15.263Z,26.79
2017-08-13T11:41:09.210Z,27.06
2017-08-13T11:41:58.355Z,26.70
2017-08-13T11:43:04.388Z,25.60
2017-08-13T11:43:52.529Z,25.12
2017-08-13T11:44:47.514Z,24.93
2017-08-13T11:45:41.526Z,24.85
2017-08-13T11:46:29.639Z,24.67
2017-08-13T11:47:23.724Z,24.64
2017-08-13T11:48:12.753Z,24.82
2017-08-13T11:49:01.730Z,25.54
2017-08-13T11:49:56.786Z,25.82
2017-08-13T11:50:44.842Z,25.84
2017-08-13T11:51:39.012Z,25.56